sensor_id;sensor_type;location;lat;lon;timestamp;P1;durP1;ratioP1;P2;durP2;ratioP2
23614;SDS011;11985;49.404;7.734;2022-12-29T00:02:35;4.63;;;2.88;;
23614;SDS011;11985;49.404;7.734;2022-12-29T00:07:38;5.05;;;2.90;;
23614;SDS011;11985;49.404;7.734;2022-12-29T00:12:40;10.93;;;3.58;;
23614;SDS011;11985;49.404;7.734;2022-12-29T00:17:59;5.35;;;2.75;;
23614;SDS011;11985;49.404;7.734;2022-12-29T00:23:02;7.13;;;2.55;;
23614;SDS011;11985;49.404;7.734;2022-12-29T00:28:21;3.33;;;2.35;;
23614;SDS011;11985;49.404;7.734;2022-12-29T00:33:40;4.68;;;2.78;;
23614;SDS011;11985;49.404;7.734;2022-12-29T00:39:02;4.72;;;2.33;;
23614;SDS011;11985;49.404;7.734;2022-12-29T00:44:25;9.30;;;2.35;;
23614;SDS011;11985;49.404;7.734;2022-12-29T00:49:27;9.55;;;1.75;;
23614;SDS011;11985;49.404;7.734;2022-12-29T00:54:33;5.13;;;2.20;;
23614;SDS011;11985;49.404;7.734;2022-12-29T00:59:36;4.90;;;1.70;;
23614;SDS011;11985;49.404;7.734;2022-12-29T01:04:39;3.83;;;1.85;;
23614;SDS011;11985;49.404;7.734;2022-12-29T01:09:42;2.95;;;1.80;;
23614;SDS011;11985;49.404;7.734;2022-12-29T01:15:01;2.60;;;1.77;;
23614;SDS011;11985;49.404;7.734;2022-12-29T01:20:03;6.88;;;1.60;;
23614;SDS011;11985;49.404;7.734;2022-12-29T01:25:07;4.05;;;1.80;;
23614;SDS011;11985;49.404;7.734;2022-12-29T01:30:09;5.38;;;1.75;;
23614;SDS011;11985;49.404;7.734;2022-12-29T01:35:11;6.35;;;2.13;;
23614;SDS011;11985;49.404;7.734;2022-12-29T01:40:14;4.90;;;1.88;;
23614;SDS011;11985;49.404;7.734;2022-12-29T01:45:16;6.03;;;2.45;;
23614;SDS011;11985;49.404;7.734;2022-12-29T01:50:20;5.93;;;2.15;;
23614;SDS011;11985;49.404;7.734;2022-12-29T01:55:28;8.55;;;2.20;;
23614;SDS011;11985;49.404;7.734;2022-12-29T02:00:33;5.00;;;2.40;;
23614;SDS011;11985;49.404;7.734;2022-12-29T02:05:36;6.50;;;2.45;;
23614;SDS011;11985;49.404;7.734;2022-12-29T02:10:43;7.60;;;2.30;;
23614;SDS011;11985;49.404;7.734;2022-12-29T02:15:48;5.10;;;2.30;;
23614;SDS011;11985;49.404;7.734;2022-12-29T02:26:43;4.43;;;2.08;;
23614;SDS011;11985;49.404;7.734;2022-12-29T02:31:57;5.10;;;2.22;;
23614;SDS011;11985;49.404;7.734;2022-12-29T02:37:05;6.38;;;2.10;;
23614;SDS011;11985;49.404;7.734;2022-12-29T02:42:19;3.15;;;1.83;;
23614;SDS011;11985;49.404;7.734;2022-12-29T02:47:30;6.68;;;2.03;;
23614;SDS011;11985;49.404;7.734;2022-12-29T02:52:38;7.15;;;2.30;;
23614;SDS011;11985;49.404;7.734;2022-12-29T02:57:46;3.78;;;2.17;;
23614;SDS011;11985;49.404;7.734;2022-12-29T03:02:54;2.50;;;1.70;;
23614;SDS011;11985;49.404;7.734;2022-12-29T03:08:14;3.03;;;1.98;;
23614;SDS011;11985;49.404;7.734;2022-12-29T03:13:25;3.45;;;2.00;;
23614;SDS011;11985;49.404;7.734;2022-12-29T03:18:55;3.22;;;1.50;;
23614;SDS011;11985;49.404;7.734;2022-12-29T03:24:01;4.82;;;1.90;;
23614;SDS011;11985;49.404;7.734;2022-12-29T03:29:04;3.30;;;1.60;;
23614;SDS011;11985;49.404;7.734;2022-12-29T03:34:11;2.63;;;1.85;;
23614;SDS011;11985;49.404;7.734;2022-12-29T03:39:14;6.15;;;1.85;;
23614;SDS011;11985;49.404;7.734;2022-12-29T03:44:16;4.88;;;1.70;;
23614;SDS011;11985;49.404;7.734;2022-12-29T03:49:19;5.18;;;2.58;;
23614;SDS011;11985;49.404;7.734;2022-12-29T03:54:21;4.25;;;1.58;;
23614;SDS011;11985;49.404;7.734;2022-12-29T03:59:23;2.70;;;1.60;;
23614;SDS011;11985;49.404;7.734;2022-12-29T04:04:26;3.58;;;2.10;;
23614;SDS011;11985;49.404;7.734;2022-12-29T04:09:27;3.30;;;1.98;;
23614;SDS011;11985;49.404;7.734;2022-12-29T04:14:30;5.88;;;2.00;;
23614;SDS011;11985;49.404;7.734;2022-12-29T04:19:33;6.20;;;2.08;;
23614;SDS011;11985;49.404;7.734;2022-12-29T04:24:34;2.70;;;1.58;;
23614;SDS011;11985;49.404;7.734;2022-12-29T04:29:36;5.40;;;1.60;;
23614;SDS011;11985;49.404;7.734;2022-12-29T04:34:39;5.35;;;1.55;;
23614;SDS011;11985;49.404;7.734;2022-12-29T04:39:40;4.43;;;2.03;;
23614;SDS011;11985;49.404;7.734;2022-12-29T04:44:42;3.97;;;1.85;;
23614;SDS011;11985;49.404;7.734;2022-12-29T04:49:45;5.72;;;2.00;;
23614;SDS011;11985;49.404;7.734;2022-12-29T04:54:47;4.88;;;2.05;;
23614;SDS011;11985;49.404;7.734;2022-12-29T04:59:48;4.60;;;1.40;;
23614;SDS011;11985;49.404;7.734;2022-12-29T05:04:52;6.22;;;1.90;;
23614;SDS011;11985;49.404;7.734;2022-12-29T05:09:53;3.85;;;1.70;;
23614;SDS011;11985;49.404;7.734;2022-12-29T05:14:55;3.72;;;1.70;;
23614;SDS011;11985;49.404;7.734;2022-12-29T05:19:58;6.25;;;1.63;;
23614;SDS011;11985;49.404;7.734;2022-12-29T05:25:00;3.65;;;1.80;;
23614;SDS011;11985;49.404;7.734;2022-12-29T05:30:02;8.90;;;1.77;;
23614;SDS011;11985;49.404;7.734;2022-12-29T05:35:06;3.03;;;1.77;;
23614;SDS011;11985;49.404;7.734;2022-12-29T05:40:08;3.10;;;1.90;;
23614;SDS011;11985;49.404;7.734;2022-12-29T05:45:11;8.40;;;2.25;;
23614;SDS011;11985;49.404;7.734;2022-12-29T05:50:14;4.30;;;2.03;;
23614;SDS011;11985;49.404;7.734;2022-12-29T05:55:15;3.80;;;1.90;;
23614;SDS011;11985;49.404;7.734;2022-12-29T06:00:17;2.40;;;1.67;;
23614;SDS011;11985;49.404;7.734;2022-12-29T06:05:21;5.15;;;1.98;;
23614;SDS011;11985;49.404;7.734;2022-12-29T06:10:22;3.67;;;1.98;;
23614;SDS011;11985;49.404;7.734;2022-12-29T06:15:24;6.75;;;2.25;;
23614;SDS011;11985;49.404;7.734;2022-12-29T06:20:27;6.18;;;1.70;;
23614;SDS011;11985;49.404;7.734;2022-12-29T06:25:28;7.13;;;1.90;;
23614;SDS011;11985;49.404;7.734;2022-12-29T06:30:32;3.67;;;1.75;;
23614;SDS011;11985;49.404;7.734;2022-12-29T06:35:35;2.75;;;1.85;;
23614;SDS011;11985;49.404;7.734;2022-12-29T06:40:37;7.50;;;2.20;;
23614;SDS011;11985;49.404;7.734;2022-12-29T06:45:39;3.25;;;1.75;;
23614;SDS011;11985;49.404;7.734;2022-12-29T06:50:43;6.35;;;2.15;;
23614;SDS011;11985;49.404;7.734;2022-12-29T06:55:44;4.53;;;2.10;;
23614;SDS011;11985;49.404;7.734;2022-12-29T07:00:46;6.35;;;2.00;;
23614;SDS011;11985;49.404;7.734;2022-12-29T07:05:49;8.15;;;2.45;;
23614;SDS011;11985;49.404;7.734;2022-12-29T07:10:51;3.42;;;1.90;;
23614;SDS011;11985;49.404;7.734;2022-12-29T07:15:53;3.28;;;2.17;;
23614;SDS011;11985;49.404;7.734;2022-12-29T07:20:56;3.67;;;1.52;;
23614;SDS011;11985;49.404;7.734;2022-12-29T07:26:00;5.40;;;2.05;;
23614;SDS011;11985;49.404;7.734;2022-12-29T07:31:02;2.13;;;1.63;;
23614;SDS011;11985;49.404;7.734;2022-12-29T07:36:06;5.93;;;2.40;;
23614;SDS011;11985;49.404;7.734;2022-12-29T07:41:08;5.72;;;1.95;;
23614;SDS011;11985;49.404;7.734;2022-12-29T07:46:10;10.20;;;2.92;;
23614;SDS011;11985;49.404;7.734;2022-12-29T07:51:13;5.75;;;2.78;;
23614;SDS011;11985;49.404;7.734;2022-12-29T07:56:14;4.43;;;2.60;;
23614;SDS011;11985;49.404;7.734;2022-12-29T08:01:16;5.53;;;2.53;;
23614;SDS011;11985;49.404;7.734;2022-12-29T08:06:19;12.27;;;3.30;;
23614;SDS011;11985;49.404;7.734;2022-12-29T08:11:21;6.07;;;2.78;;
23614;SDS011;11985;49.404;7.734;2022-12-29T08:16:23;8.15;;;2.92;;
23614;SDS011;11985;49.404;7.734;2022-12-29T08:21:26;8.95;;;3.40;;
23614;SDS011;11985;49.404;7.734;2022-12-29T08:26:29;8.63;;;3.13;;
23614;SDS011;11985;49.404;7.734;2022-12-29T08:31:30;10.45;;;3.03;;
23614;SDS011;11985;49.404;7.734;2022-12-29T08:36:33;7.47;;;3.58;;
23614;SDS011;11985;49.404;7.734;2022-12-29T08:41:35;8.05;;;3.38;;
23614;SDS011;11985;49.404;7.734;2022-12-29T08:46:36;7.85;;;3.55;;
23614;SDS011;11985;49.404;7.734;2022-12-29T08:51:40;6.18;;;3.75;;
23614;SDS011;11985;49.404;7.734;2022-12-29T08:56:41;7.75;;;3.20;;
23614;SDS011;11985;49.404;7.734;2022-12-29T09:01:43;6.82;;;3.65;;
23614;SDS011;11985;49.404;7.734;2022-12-29T09:06:46;6.78;;;2.83;;
23614;SDS011;11985;49.404;7.734;2022-12-29T09:11:47;5.35;;;3.28;;
23614;SDS011;11985;49.404;7.734;2022-12-29T09:16:50;6.20;;;2.75;;
23614;SDS011;11985;49.404;7.734;2022-12-29T09:22:11;9.15;;;3.05;;
23614;SDS011;11985;49.404;7.734;2022-12-29T09:27:13;6.80;;;3.38;;
23614;SDS011;11985;49.404;7.734;2022-12-29T09:32:14;8.95;;;3.00;;
23614;SDS011;11985;49.404;7.734;2022-12-29T09:37:18;8.40;;;2.97;;
23614;SDS011;11985;49.404;7.734;2022-12-29T09:42:22;10.70;;;3.33;;
23614;SDS011;11985;49.404;7.734;2022-12-29T09:47:26;7.28;;;3.28;;
23614;SDS011;11985;49.404;7.734;2022-12-29T09:52:31;5.93;;;3.40;;
23614;SDS011;11985;49.404;7.734;2022-12-29T09:57:38;7.78;;;3.13;;
23614;SDS011;11985;49.404;7.734;2022-12-29T10:02:46;7.22;;;3.03;;
23614;SDS011;11985;49.404;7.734;2022-12-29T10:07:54;6.72;;;3.10;;
23614;SDS011;11985;49.404;7.734;2022-12-29T10:13:09;3.80;;;2.47;;
23614;SDS011;11985;49.404;7.734;2022-12-29T10:18:27;4.07;;;2.60;;
23614;SDS011;11985;49.404;7.734;2022-12-29T10:23:38;4.20;;;2.13;;
23614;SDS011;11985;49.404;7.734;2022-12-29T10:28:42;5.15;;;2.20;;
23614;SDS011;11985;49.404;7.734;2022-12-29T10:33:48;4.00;;;1.70;;
23614;SDS011;11985;49.404;7.734;2022-12-29T10:39:01;3.55;;;1.75;;
23614;SDS011;11985;49.404;7.734;2022-12-29T10:44:07;3.40;;;1.30;;
23614;SDS011;11985;49.404;7.734;2022-12-29T10:49:12;2.55;;;1.20;;
23614;SDS011;11985;49.404;7.734;2022-12-29T10:54:20;1.65;;;1.33;;
23614;SDS011;11985;49.404;7.734;2022-12-29T10:59:26;3.50;;;1.38;;
23614;SDS011;11985;49.404;7.734;2022-12-29T11:04:34;5.57;;;1.70;;
23614;SDS011;11985;49.404;7.734;2022-12-29T11:09:44;5.35;;;2.03;;
23614;SDS011;11985;49.404;7.734;2022-12-29T11:14:47;5.60;;;2.17;;
23614;SDS011;11985;49.404;7.734;2022-12-29T11:20:14;5.65;;;1.75;;
23614;SDS011;11985;49.404;7.734;2022-12-29T11:25:29;3.03;;;1.60;;
23614;SDS011;11985;49.404;7.734;2022-12-29T11:30:31;3.42;;;1.55;;
23614;SDS011;11985;49.404;7.734;2022-12-29T11:35:35;6.85;;;2.45;;
23614;SDS011;11985;49.404;7.734;2022-12-29T11:40:41;8.25;;;1.83;;
23614;SDS011;11985;49.404;7.734;2022-12-29T11:45:42;4.10;;;1.42;;
23614;SDS011;11985;49.404;7.734;2022-12-29T11:50:48;3.25;;;1.60;;
23614;SDS011;11985;49.404;7.734;2022-12-29T11:55:55;3.40;;;1.45;;
23614;SDS011;11985;49.404;7.734;2022-12-29T12:00:58;3.28;;;1.35;;
23614;SDS011;11985;49.404;7.734;2022-12-29T12:06:03;5.53;;;1.40;;
23614;SDS011;11985;49.404;7.734;2022-12-29T12:11:10;7.28;;;1.70;;
23614;SDS011;11985;49.404;7.734;2022-12-29T12:16:14;3.17;;;1.30;;
23614;SDS011;11985;49.404;7.734;2022-12-29T12:21:21;4.50;;;1.60;;
23614;SDS011;11985;49.404;7.734;2022-12-29T12:26:30;5.30;;;1.50;;
23614;SDS011;11985;49.404;7.734;2022-12-29T12:31:39;7.55;;;1.30;;
23614;SDS011;11985;49.404;7.734;2022-12-29T12:36:57;5.38;;;1.30;;
23614;SDS011;11985;49.404;7.734;2022-12-29T12:42:13;3.00;;;1.27;;
23614;SDS011;11985;49.404;7.734;2022-12-29T12:47:35;2.95;;;1.60;;
23614;SDS011;11985;49.404;7.734;2022-12-29T12:52:54;1.85;;;1.15;;
23614;SDS011;11985;49.404;7.734;2022-12-29T12:58:19;3.63;;;1.40;;
23614;SDS011;11985;49.404;7.734;2022-12-29T13:03:34;3.40;;;1.20;;
23614;SDS011;11985;49.404;7.734;2022-12-29T13:08:52;3.53;;;0.95;;
23614;SDS011;11985;49.404;7.734;2022-12-29T13:14:13;3.15;;;0.98;;
23614;SDS011;11985;49.404;7.734;2022-12-29T13:19:24;2.67;;;0.98;;
23614;SDS011;11985;49.404;7.734;2022-12-29T13:24:34;3.10;;;0.80;;
23614;SDS011;11985;49.404;7.734;2022-12-29T13:29:49;3.42;;;0.70;;
23614;SDS011;11985;49.404;7.734;2022-12-29T13:35:06;2.63;;;0.65;;
23614;SDS011;11985;49.404;7.734;2022-12-29T13:40:20;1.33;;;0.93;;
23614;SDS011;11985;49.404;7.734;2022-12-29T13:45:28;3.85;;;0.98;;
23614;SDS011;11985;49.404;7.734;2022-12-29T13:50:35;8.02;;;1.02;;
23614;SDS011;11985;49.404;7.734;2022-12-29T13:55:40;4.72;;;0.88;;
23614;SDS011;11985;49.404;7.734;2022-12-29T14:00:58;6.10;;;1.10;;
23614;SDS011;11985;49.404;7.734;2022-12-29T14:06:11;5.18;;;1.20;;
23614;SDS011;11985;49.404;7.734;2022-12-29T14:11:17;3.55;;;0.88;;
23614;SDS011;11985;49.404;7.734;2022-12-29T14:16:26;3.33;;;1.13;;
23614;SDS011;11985;49.404;7.734;2022-12-29T14:21:30;5.93;;;1.20;;
23614;SDS011;11985;49.404;7.734;2022-12-29T14:26:34;5.07;;;1.20;;
23614;SDS011;11985;49.404;7.734;2022-12-29T14:31:38;5.93;;;1.08;;
23614;SDS011;11985;49.404;7.734;2022-12-29T14:36:41;4.88;;;1.00;;
23614;SDS011;11985;49.404;7.734;2022-12-29T14:41:58;7.22;;;1.33;;
23614;SDS011;11985;49.404;7.734;2022-12-29T14:47:04;6.32;;;1.20;;
23614;SDS011;11985;49.404;7.734;2022-12-29T14:52:13;7.95;;;2.05;;
23614;SDS011;11985;49.404;7.734;2022-12-29T14:57:22;6.13;;;1.30;;
23614;SDS011;11985;49.404;7.734;2022-12-29T15:02:32;7.72;;;1.23;;
23614;SDS011;11985;49.404;7.734;2022-12-29T15:07:39;13.43;;;4.03;;
23614;SDS011;11985;49.404;7.734;2022-12-29T15:12:43;7.55;;;1.60;;
23614;SDS011;11985;49.404;7.734;2022-12-29T15:17:53;6.80;;;1.38;;
23614;SDS011;11985;49.404;7.734;2022-12-29T15:22:55;5.40;;;1.15;;
23614;SDS011;11985;49.404;7.734;2022-12-29T15:27:59;6.95;;;1.27;;
23614;SDS011;11985;49.404;7.734;2022-12-29T15:33:11;8.07;;;1.88;;
23614;SDS011;11985;49.404;7.734;2022-12-29T15:38:21;9.43;;;1.48;;
23614;SDS011;11985;49.404;7.734;2022-12-29T15:43:36;5.00;;;1.92;;
23614;SDS011;11985;49.404;7.734;2022-12-29T15:48:51;5.93;;;1.30;;
23614;SDS011;11985;49.404;7.734;2022-12-29T15:53:53;5.97;;;1.15;;
23614;SDS011;11985;49.404;7.734;2022-12-29T15:58:55;11.20;;;1.95;;
23614;SDS011;11985;49.404;7.734;2022-12-29T16:04:00;9.50;;;1.67;;
23614;SDS011;11985;49.404;7.734;2022-12-29T16:09:04;11.23;;;1.83;;
23614;SDS011;11985;49.404;7.734;2022-12-29T16:14:08;11.20;;;1.98;;
23614;SDS011;11985;49.404;7.734;2022-12-29T16:19:17;12.43;;;1.63;;
23614;SDS011;11985;49.404;7.734;2022-12-29T16:24:23;5.68;;;1.83;;
23614;SDS011;11985;49.404;7.734;2022-12-29T16:29:27;11.57;;;1.73;;
23614;SDS011;11985;49.404;7.734;2022-12-29T16:34:33;9.57;;;1.92;;
23614;SDS011;11985;49.404;7.734;2022-12-29T16:39:44;10.30;;;2.10;;
23614;SDS011;11985;49.404;7.734;2022-12-29T16:44:46;6.80;;;1.95;;
23614;SDS011;11985;49.404;7.734;2022-12-29T16:49:52;11.65;;;1.80;;
23614;SDS011;11985;49.404;7.734;2022-12-29T16:54:55;9.52;;;1.70;;
23614;SDS011;11985;49.404;7.734;2022-12-29T17:05:04;5.18;;;1.80;;
23614;SDS011;11985;49.404;7.734;2022-12-29T17:10:06;9.68;;;2.35;;
23614;SDS011;11985;49.404;7.734;2022-12-29T17:15:10;14.10;;;3.25;;
23614;SDS011;11985;49.404;7.734;2022-12-29T17:20:18;13.65;;;3.30;;
23614;SDS011;11985;49.404;7.734;2022-12-29T17:25:22;12.82;;;3.13;;
23614;SDS011;11985;49.404;7.734;2022-12-29T17:30:28;7.82;;;2.15;;
23614;SDS011;11985;49.404;7.734;2022-12-29T17:35:34;12.90;;;2.83;;
23614;SDS011;11985;49.404;7.734;2022-12-29T17:40:35;12.98;;;4.47;;
23614;SDS011;11985;49.404;7.734;2022-12-29T17:45:37;7.32;;;1.85;;
23614;SDS011;11985;49.404;7.734;2022-12-29T17:50:41;7.88;;;2.05;;
23614;SDS011;11985;49.404;7.734;2022-12-29T17:55:44;13.47;;;2.30;;
23614;SDS011;11985;49.404;7.734;2022-12-29T18:00:46;10.10;;;3.08;;
23614;SDS011;11985;49.404;7.734;2022-12-29T18:05:50;13.95;;;2.55;;
23614;SDS011;11985;49.404;7.734;2022-12-29T18:10:51;9.02;;;2.42;;
23614;SDS011;11985;49.404;7.734;2022-12-29T18:15:55;10.43;;;2.33;;
23614;SDS011;11985;49.404;7.734;2022-12-29T18:20:58;11.02;;;2.58;;
23614;SDS011;11985;49.404;7.734;2022-12-29T18:26:00;8.77;;;2.10;;
23614;SDS011;11985;49.404;7.734;2022-12-29T18:31:08;15.88;;;2.47;;
23614;SDS011;11985;49.404;7.734;2022-12-29T18:36:18;9.98;;;2.13;;
23614;SDS011;11985;49.404;7.734;2022-12-29T18:41:22;9.85;;;2.58;;
23614;SDS011;11985;49.404;7.734;2022-12-29T18:46:25;9.00;;;2.20;;
23614;SDS011;11985;49.404;7.734;2022-12-29T18:51:28;11.80;;;2.10;;
23614;SDS011;11985;49.404;7.734;2022-12-29T18:56:30;9.55;;;1.88;;
23614;SDS011;11985;49.404;7.734;2022-12-29T19:01:31;10.73;;;1.80;;
23614;SDS011;11985;49.404;7.734;2022-12-29T19:06:35;10.70;;;1.63;;
23614;SDS011;11985;49.404;7.734;2022-12-29T19:11:36;8.30;;;2.50;;
23614;SDS011;11985;49.404;7.734;2022-12-29T19:16:38;10.95;;;1.80;;
23614;SDS011;11985;49.404;7.734;2022-12-29T19:21:41;11.13;;;3.13;;
23614;SDS011;11985;49.404;7.734;2022-12-29T19:26:43;4.72;;;1.45;;
23614;SDS011;11985;49.404;7.734;2022-12-29T19:31:45;8.73;;;2.05;;
23614;SDS011;11985;49.404;7.734;2022-12-29T19:36:48;7.68;;;1.77;;
23614;SDS011;11985;49.404;7.734;2022-12-29T19:41:50;7.75;;;2.55;;
23614;SDS011;11985;49.404;7.734;2022-12-29T19:46:51;6.45;;;2.05;;
23614;SDS011;11985;49.404;7.734;2022-12-29T19:51:54;11.65;;;2.95;;
23614;SDS011;11985;49.404;7.734;2022-12-29T19:56:56;10.27;;;3.42;;
23614;SDS011;11985;49.404;7.734;2022-12-29T20:01:57;9.80;;;3.60;;
23614;SDS011;11985;49.404;7.734;2022-12-29T20:07:00;11.48;;;3.15;;
23614;SDS011;11985;49.404;7.734;2022-12-29T20:12:02;16.50;;;3.78;;
23614;SDS011;11985;49.404;7.734;2022-12-29T20:17:04;18.05;;;5.03;;
23614;SDS011;11985;49.404;7.734;2022-12-29T20:22:08;12.18;;;3.40;;
23614;SDS011;11985;49.404;7.734;2022-12-29T20:27:10;13.30;;;2.58;;
23614;SDS011;11985;49.404;7.734;2022-12-29T20:32:13;8.82;;;2.60;;
23614;SDS011;11985;49.404;7.734;2022-12-29T20:37:18;14.57;;;3.13;;
23614;SDS011;11985;49.404;7.734;2022-12-29T20:42:20;9.48;;;2.45;;
23614;SDS011;11985;49.404;7.734;2022-12-29T20:47:21;12.90;;;2.58;;
23614;SDS011;11985;49.404;7.734;2022-12-29T20:52:24;17.02;;;4.13;;
23614;SDS011;11985;49.404;7.734;2022-12-29T20:57:26;11.50;;;2.10;;
23614;SDS011;11985;49.404;7.734;2022-12-29T21:02:27;8.85;;;2.38;;
23614;SDS011;11985;49.404;7.734;2022-12-29T21:07:30;8.73;;;2.33;;
23614;SDS011;11985;49.404;7.734;2022-12-29T21:12:32;12.68;;;2.70;;
23614;SDS011;11985;49.404;7.734;2022-12-29T21:17:34;5.60;;;1.90;;
23614;SDS011;11985;49.404;7.734;2022-12-29T21:22:37;9.60;;;2.25;;
23614;SDS011;11985;49.404;7.734;2022-12-29T21:27:38;5.13;;;1.80;;
23614;SDS011;11985;49.404;7.734;2022-12-29T21:32:43;11.57;;;2.03;;
23614;SDS011;11985;49.404;7.734;2022-12-29T21:37:46;9.55;;;2.35;;
23614;SDS011;11985;49.404;7.734;2022-12-29T21:42:47;7.00;;;2.17;;
23614;SDS011;11985;49.404;7.734;2022-12-29T21:47:49;17.40;;;3.40;;
23614;SDS011;11985;49.404;7.734;2022-12-29T21:53:10;14.02;;;3.25;;
23614;SDS011;11985;49.404;7.734;2022-12-29T21:58:11;12.35;;;2.22;;
23614;SDS011;11985;49.404;7.734;2022-12-29T22:03:30;12.30;;;2.00;;
23614;SDS011;11985;49.404;7.734;2022-12-29T22:08:51;16.20;;;3.28;;
23614;SDS011;11985;49.404;7.734;2022-12-29T22:14:10;20.75;;;2.40;;
23614;SDS011;11985;49.404;7.734;2022-12-29T22:19:12;8.27;;;1.88;;
23614;SDS011;11985;49.404;7.734;2022-12-29T22:24:16;12.45;;;2.40;;
23614;SDS011;11985;49.404;7.734;2022-12-29T22:29:17;13.32;;;2.70;;
23614;SDS011;11985;49.404;7.734;2022-12-29T22:34:19;6.47;;;1.73;;
23614;SDS011;11985;49.404;7.734;2022-12-29T22:39:22;13.88;;;2.95;;
23614;SDS011;11985;49.404;7.734;2022-12-29T22:44:24;9.32;;;2.13;;
23614;SDS011;11985;49.404;7.734;2022-12-29T22:49:25;14.05;;;3.00;;
23614;SDS011;11985;49.404;7.734;2022-12-29T22:54:28;17.60;;;1.92;;
23614;SDS011;11985;49.404;7.734;2022-12-29T22:59:30;14.05;;;2.90;;
23614;SDS011;11985;49.404;7.734;2022-12-29T23:04:33;7.80;;;2.45;;
23614;SDS011;11985;49.404;7.734;2022-12-29T23:09:37;22.17;;;3.08;;
23614;SDS011;11985;49.404;7.734;2022-12-29T23:14:39;12.40;;;2.10;;
23614;SDS011;11985;49.404;7.734;2022-12-29T23:19:40;15.48;;;2.30;;
23614;SDS011;11985;49.404;7.734;2022-12-29T23:24:43;15.68;;;2.22;;
23614;SDS011;11985;49.404;7.734;2022-12-29T23:29:45;14.27;;;2.63;;
23614;SDS011;11985;49.404;7.734;2022-12-29T23:34:47;10.98;;;2.00;;
23614;SDS011;11985;49.404;7.734;2022-12-29T23:39:49;12.60;;;2.53;;
23614;SDS011;11985;49.404;7.734;2022-12-29T23:44:51;9.10;;;2.03;;
23614;SDS011;11985;49.404;7.734;2022-12-29T23:49:53;14.70;;;2.20;;
23614;SDS011;11985;49.404;7.734;2022-12-29T23:54:55;11.63;;;1.92;;
23614;SDS011;11985;49.404;7.734;2022-12-29T23:59:57;5.00;;;1.88;;
